createdAt,value
2022-08-30T00:03:05.606Z,100.00
2022-08-30T00:05:56.444Z,100.00
2022-08-30T00:08:47.025Z,100.00
2022-08-30T00:14:13.631Z,100.00
2022-08-30T00:17:03.439Z,100.00
2022-08-30T00:20:29.201Z,100.00
2022-08-30T00:23:38.536Z,100.00
2022-08-30T00:26:30.393Z,100.00
2022-08-30T00:29:21.177Z,100.00
2022-08-30T00:32:11.580Z,100.00
2022-08-30T00:35:18.798Z,100.00
2022-08-30T00:38:08.793Z,100.00
2022-08-30T00:47:32.759Z,100.00
2022-08-30T00:50:27.580Z,100.00
2022-08-30T00:53:03.443Z,100.00
2022-08-30T00:56:11.343Z,100.00
2022-08-30T00:59:55.636Z,100.00
2022-08-30T01:02:47.022Z,100.00
2022-08-30T01:05:40.254Z,100.00
2022-08-30T01:08:12.912Z,100.00
2022-08-30T01:11:39.514Z,100.00
2022-08-30T01:17:57.332Z,100.00
2022-08-30T01:20:56.447Z,100.00
2022-08-30T01:23:30.409Z,100.00
2022-08-30T01:26:22.726Z,100.00
2022-08-30T01:28:58.398Z,100.00
2022-08-30T01:31:49.502Z,100.00
2022-08-30T01:34:39.684Z,100.00
2022-08-30T01:37:19.734Z,100.00
2022-08-30T01:40:10.691Z,100.00
2022-08-30T01:42:43.500Z,100.00
2022-08-30T01:46:26.230Z,100.00
2022-08-30T01:49:54.271Z,100.00
2022-08-30T01:52:27.565Z,100.00
2022-08-30T01:55:35.163Z,100.00
2022-08-30T02:01:18.084Z,100.00
2022-08-30T02:07:57.030Z,100.00
2022-08-30T02:13:57.775Z,100.00
2022-08-30T02:16:31.345Z,100.00
2022-08-30T02:19:21.005Z,100.00
2022-08-30T02:22:11.573Z,100.00
2022-08-30T02:24:44.469Z,100.00
2022-08-30T02:33:51.674Z,100.00
2022-08-30T02:36:41.902Z,100.00
2022-08-30T02:39:32.336Z,100.00
2022-08-30T02:42:22.437Z,100.00
2022-08-30T02:45:12.518Z,100.00
2022-08-30T02:51:29.617Z,100.00
2022-08-30T02:54:37.658Z,100.00
2022-08-30T02:57:30.685Z,100.00
2022-08-30T03:03:48.385Z,100.00
2022-08-30T03:06:39.038Z,100.00
2022-08-30T03:09:30.254Z,100.00
2022-08-30T03:16:21.011Z,100.00
2022-08-30T03:19:47.669Z,100.00
2022-08-30T03:30:08.504Z,100.00
2022-08-30T03:36:08.528Z,100.00
2022-08-30T03:41:50.155Z,100.00
2022-08-30T03:44:23.102Z,100.00
2022-08-30T03:47:32.077Z,100.00
2022-08-30T03:53:48.506Z,100.00
2022-08-30T03:59:37.284Z,100.00
2022-08-30T04:02:10.212Z,100.00
2022-08-30T04:08:27.844Z,100.00
2022-08-30T04:11:36.745Z,100.00
2022-08-30T04:14:28.370Z,100.00
2022-08-30T04:17:01.477Z,100.00
2022-08-30T04:19:51.267Z,100.00
2022-08-30T04:22:42.548Z,100.00
2022-08-30T04:26:09.127Z,100.00
2022-08-30T04:28:42.226Z,100.00
2022-08-30T04:34:42.460Z,100.00
2022-08-30T04:37:33.579Z,100.00
2022-08-30T04:43:15.832Z,100.00
2022-08-30T04:49:01.790Z,100.00
2022-08-30T04:55:20.378Z,100.00
2022-08-30T04:57:53.799Z,100.00
2022-08-30T05:00:47.155Z,100.00
2022-08-30T05:07:22.433Z,100.00
2022-08-30T05:13:20.862Z,100.00
2022-08-30T05:16:35.173Z,100.00
2022-08-30T05:22:15.410Z,100.00
2022-08-30T05:25:06.307Z,100.00
2022-08-30T05:31:04.617Z,100.00
2022-08-30T05:34:23.555Z,100.00
2022-08-30T05:36:56.631Z,100.00
2022-08-30T05:39:29.756Z,100.00
2022-08-30T05:43:16.595Z,100.00
2022-08-30T05:46:06.633Z,100.00
2022-08-30T05:52:05.522Z,100.00
2022-08-30T05:55:14.189Z,100.00
2022-08-30T06:01:28.832Z,100.00
2022-08-30T06:04:04.298Z,100.00
2022-08-30T06:07:15.827Z,100.00
2022-08-30T06:10:09.523Z,100.00
2022-08-30T06:13:17.396Z,100.00
2022-08-30T06:23:18.700Z,100.00
2022-08-30T06:26:10.631Z,100.00
2022-08-30T06:29:40.666Z,100.00
2022-08-30T06:36:05.735Z,100.00
2022-08-30T06:39:13.603Z,100.00
2022-08-30T06:46:06.191Z,100.00
2022-08-30T06:49:17.399Z,100.00
2022-08-30T06:52:08.682Z,100.00
2022-08-30T06:58:25.978Z,93.29
2022-08-30T07:01:18.962Z,95.90
2022-08-30T07:07:54.795Z,91.40
2022-08-30T07:10:46.341Z,91.95
2022-08-30T07:14:11.013Z,93.37
2022-08-30T07:17:20.781Z,94.76
2022-08-30T07:20:12.428Z,94.95
2022-08-30T07:22:45.795Z,91.62
2022-08-30T07:25:19.882Z,90.04
2022-08-30T07:28:12.134Z,87.50
2022-08-30T07:31:04.079Z,88.72
2022-08-30T07:34:29.352Z,87.86
2022-08-30T07:37:18.871Z,87.87
2022-08-30T07:40:11.637Z,84.50
2022-08-30T07:45:53.105Z,83.13
2022-08-30T07:49:01.713Z,83.15
2022-08-30T07:55:37.723Z,76.99
2022-08-30T07:58:10.548Z,73.30
2022-08-30T08:05:02.258Z,76.13
2022-08-30T08:07:35.420Z,72.93
2022-08-30T08:10:09.422Z,70.63
2022-08-30T08:12:59.652Z,72.46
2022-08-30T08:15:49.519Z,73.49
2022-08-30T08:18:22.321Z,71.80
2022-08-30T08:21:14.237Z,70.78
2022-08-30T08:27:29.555Z,71.62
2022-08-30T08:30:02.031Z,71.29
2022-08-30T08:33:28.473Z,73.77
2022-08-30T08:39:43.776Z,68.81
2022-08-30T08:42:40.604Z,66.32
2022-08-30T08:45:36.639Z,62.84
2022-08-30T08:48:51.785Z,63.31
2022-08-30T08:52:03.974Z,65.08
2022-08-30T08:54:43.628Z,65.16
2022-08-30T08:57:37.671Z,63.36
2022-08-30T09:00:45.035Z,61.91
2022-08-30T09:49:24.022Z,49.32
2022-08-30T09:56:14.976Z,49.55
2022-08-30T09:59:12.992Z,48.09
2022-08-30T10:02:02.440Z,48.14
2022-08-30T10:05:00.286Z,48.53
2022-08-30T10:07:55.723Z,43.60
2022-08-30T10:10:51.206Z,44.63
2022-08-30T10:13:56.472Z,42.65
2022-08-30T10:17:09.521Z,44.55
2022-08-30T10:19:57.900Z,44.36
2022-08-30T10:23:24.685Z,44.68
2022-08-30T10:26:32.068Z,42.50
2022-08-30T10:29:22.105Z,42.08
2022-08-30T10:32:47.997Z,42.58
2022-08-30T10:35:39.957Z,43.31
2022-08-30T10:38:44.923Z,43.20
2022-08-30T10:41:24.424Z,42.61
2022-08-30T10:44:16.990Z,42.35
2022-08-30T10:47:18.573Z,42.37
2022-08-30T10:50:01.572Z,41.75
2022-08-30T10:53:09.046Z,40.90
2022-08-30T10:55:49.875Z,39.46
2022-08-30T11:06:18.897Z,40.46
2022-08-30T11:09:06.926Z,40.21
2022-08-30T11:12:11.221Z,39.26
2022-08-30T11:18:24.476Z,41.08
2022-08-30T11:21:20.960Z,40.36
2022-08-30T11:27:45.545Z,40.83
2022-08-30T11:44:26.824Z,37.91
2022-08-30T11:46:58.044Z,38.98
2022-08-30T11:50:21.643Z,38.91
2022-08-30T11:53:33.850Z,39.24
2022-08-30T11:56:24.482Z,39.60
2022-08-30T11:58:58.322Z,40.34
2022-08-30T12:01:53.070Z,40.67
2022-08-30T12:08:53.291Z,41.27
2022-08-30T12:11:59.047Z,41.60
2022-08-30T12:14:52.829Z,41.35
2022-08-30T12:18:16.129Z,40.39
2022-08-30T12:21:28.854Z,40.30
2022-08-30T12:24:07.139Z,40.67
2022-08-30T12:26:54.475Z,40.69
2022-08-30T12:33:41.488Z,40.48
2022-08-30T12:36:35.823Z,39.94
2022-08-30T12:39:35.798Z,39.91
2022-08-30T12:42:49.337Z,39.95
2022-08-30T12:46:16.811Z,39.59
2022-08-30T12:49:06.833Z,39.60
2022-08-30T12:51:41.191Z,40.26
2022-08-30T12:54:18.404Z,40.65
2022-08-30T12:57:19.586Z,41.05
2022-08-30T13:00:27.467Z,41.42
2022-08-30T13:03:32.907Z,40.70
2022-08-30T13:06:43.885Z,40.64
2022-08-30T13:13:44.383Z,39.78
2022-08-30T13:17:07.596Z,39.53
2022-08-30T13:26:39.983Z,40.52
2022-08-30T13:33:29.367Z,41.33
2022-08-30T13:36:35.920Z,41.03
2022-08-30T13:39:25.519Z,40.44
2022-08-30T13:42:31.632Z,41.62
2022-08-30T13:45:04.908Z,42.98
2022-08-30T13:47:52.995Z,41.13
2022-08-30T13:50:42.838Z,41.48
2022-08-30T13:56:53.468Z,40.78
2022-08-30T14:02:29.540Z,40.18
2022-08-30T14:05:02.873Z,40.73
2022-08-30T14:07:50.515Z,40.24
2022-08-30T14:10:46.440Z,39.60
2022-08-30T14:13:29.473Z,39.18
2022-08-30T14:18:51.450Z,39.26
2022-08-30T14:21:56.754Z,38.86
2022-08-30T14:24:43.694Z,39.32
2022-08-30T14:27:31.188Z,39.42
2022-08-30T14:30:38.742Z,40.29
2022-08-30T14:34:05.477Z,41.08
2022-08-30T14:36:53.431Z,40.98
2022-08-30T14:43:06.955Z,41.50
2022-08-30T14:49:18.672Z,41.94
2022-08-30T14:51:49.704Z,41.59
2022-08-30T14:54:39.258Z,41.26
2022-08-30T14:57:26.581Z,40.97
2022-08-30T15:00:51.924Z,41.25
2022-08-30T15:03:21.534Z,41.64
2022-08-30T15:06:46.923Z,42.36
2022-08-30T15:12:09.229Z,42.96
2022-08-30T15:15:19.050Z,43.66
2022-08-30T15:18:08.206Z,43.79
2022-08-30T15:21:13.343Z,43.83
2022-08-30T15:24:38.980Z,43.82
2022-08-30T15:27:26.917Z,43.92
2022-08-30T15:30:15.911Z,44.20
2022-08-30T15:34:01.802Z,44.68
2022-08-30T15:36:31.410Z,45.97
2022-08-30T15:39:37.853Z,46.51
2022-08-30T15:46:13.385Z,47.81
2022-08-30T15:52:10.282Z,47.58
2022-08-30T15:55:12.307Z,48.33
2022-08-30T15:57:41.402Z,48.91
2022-08-30T16:00:13.704Z,50.30
2022-08-30T16:02:43.468Z,50.88
2022-08-30T16:05:31.854Z,51.69
2022-08-30T16:08:01.148Z,52.08
2022-08-30T16:24:28.250Z,54.37
2022-08-30T16:30:22.649Z,63.65
2022-08-30T16:33:11.135Z,70.68
2022-08-30T16:35:58.395Z,76.81
2022-08-30T16:38:46.215Z,83.99
2022-08-30T16:41:21.383Z,85.63
2022-08-30T16:50:04.043Z,82.94
2022-08-30T16:55:59.100Z,78.96
2022-08-30T16:58:46.444Z,78.80
2022-08-30T17:01:53.955Z,78.37
2022-08-30T17:04:24.376Z,76.62
2022-08-30T17:06:54.787Z,75.84
2022-08-30T17:09:43.275Z,75.82
2022-08-30T17:12:48.713Z,75.31
2022-08-30T17:15:19.505Z,75.20
2022-08-30T17:18:25.864Z,74.56
2022-08-30T17:20:55.552Z,74.17
2022-08-30T17:24:02.814Z,74.30
2022-08-30T17:26:58.395Z,75.64
2022-08-30T17:32:18.280Z,76.49
2022-08-30T17:42:14.469Z,78.81
2022-08-30T17:45:19.231Z,78.99
2022-08-30T17:48:06.724Z,80.42
2022-08-30T17:50:56.196Z,79.48
2022-08-30T18:01:29.663Z,84.78
2022-08-30T18:04:33.402Z,86.28
2022-08-30T18:07:23.148Z,86.58
2022-08-30T18:17:01.794Z,89.35
2022-08-30T18:20:10.989Z,91.68
2022-08-30T18:25:55.441Z,92.58
2022-08-30T18:28:43.324Z,94.45
2022-08-30T18:31:13.608Z,98.47
2022-08-30T18:37:45.014Z,100.00
2022-08-30T18:40:32.927Z,100.00
2022-08-30T18:46:28.285Z,100.00
2022-08-30T18:49:36.076Z,100.00
2022-08-30T18:55:31.935Z,100.00
2022-08-30T18:58:29.546Z,100.00
2022-08-30T19:00:59.129Z,100.00
2022-08-30T19:03:33.091Z,100.00
2022-08-30T19:09:30.683Z,100.00
2022-08-30T19:12:18.211Z,100.00
2022-08-30T19:18:17.154Z,100.00
2022-08-30T19:21:46.081Z,100.00
2022-08-30T19:27:40.043Z,100.00
2022-08-30T19:30:20.548Z,100.00
2022-08-30T19:33:11.734Z,100.00
2022-08-30T19:39:05.922Z,100.00
2022-08-30T19:42:29.524Z,100.00
2022-08-30T19:44:59.609Z,100.00
2022-08-30T19:48:07.319Z,100.00
2022-08-30T19:50:38.285Z,100.00
2022-08-30T19:53:26.847Z,100.00
2022-08-30T20:03:01.939Z,100.00
2022-08-30T20:06:06.148Z,100.00
2022-08-30T20:08:56.611Z,100.00
2022-08-30T20:11:46.942Z,100.00
2022-08-30T20:14:22.581Z,100.00
2022-08-30T20:17:42.325Z,100.00
2022-08-30T20:20:38.100Z,100.00
2022-08-30T20:23:29.551Z,100.00
2022-08-30T20:26:00.151Z,100.00
2022-08-30T20:28:32.499Z,100.00
2022-08-30T20:31:20.629Z,100.00
2022-08-30T20:33:50.235Z,100.00
2022-08-30T20:40:21.561Z,100.00
2022-08-30T20:43:27.524Z,100.00
2022-08-30T20:46:18.771Z,100.00
2022-08-30T20:49:43.218Z,100.00
2022-08-30T21:00:14.679Z,100.00
2022-08-30T21:03:26.138Z,100.00
2022-08-30T21:05:57.510Z,100.00
2022-08-30T21:11:50.670Z,100.00
2022-08-30T21:14:37.942Z,100.00
2022-08-30T21:20:32.182Z,100.00
2022-08-30T21:23:20.372Z,100.00
2022-08-30T21:25:50.081Z,100.00
2022-08-30T21:31:29.840Z,100.00
2022-08-30T21:34:17.421Z,100.00
2022-08-30T21:37:41.959Z,100.00
2022-08-30T21:41:06.039Z,100.00
2022-08-30T21:43:35.404Z,100.00
2022-08-30T21:46:41.325Z,100.00
2022-08-30T21:49:12.099Z,100.00
2022-08-30T21:54:48.574Z,100.00
2022-08-30T21:57:55.157Z,100.00
2022-08-30T22:00:43.045Z,100.00
2022-08-30T22:03:48.120Z,100.00
2022-08-30T22:06:37.946Z,100.00
2022-08-30T22:09:26.366Z,100.00
2022-08-30T22:12:50.709Z,100.00
2022-08-30T22:15:38.314Z,100.00
2022-08-30T22:28:39.875Z,100.00
2022-08-30T22:31:46.511Z,100.00
2022-08-30T22:34:18.297Z,100.00
2022-08-30T22:40:30.867Z,100.00
2022-08-30T22:43:41.114Z,100.00
2022-08-30T22:46:11.238Z,100.00
2022-08-30T22:49:35.221Z,100.00
2022-08-30T22:52:40.771Z,100.00
2022-08-30T22:55:10.641Z,100.00
2022-08-30T22:57:40.974Z,100.00
2022-08-30T23:00:28.976Z,100.00
2022-08-30T23:02:58.224Z,100.00
2022-08-30T23:06:04.627Z,100.00
2022-08-30T23:09:11.343Z,100.00
2022-08-30T23:11:59.760Z,100.00
2022-08-30T23:15:05.431Z,100.00
2022-08-30T23:17:54.130Z,100.00
2022-08-30T23:20:41.242Z,100.00
2022-08-30T23:26:51.830Z,100.00
2022-08-30T23:29:59.428Z,100.00
2022-08-30T23:33:05.065Z,100.00
2022-08-30T23:36:28.444Z,100.00
2022-08-30T23:39:35.117Z,100.00
2022-08-30T23:42:40.933Z,100.00
2022-08-30T23:45:46.379Z,100.00
2022-08-30T23:48:52.482Z,100.00
2022-08-30T23:58:46.244Z,100.00
